createdAt,value
2019-02-22T00:00:49.753Z,72.90
2019-02-22T00:01:25.935Z,73.00
2019-02-22T00:02:02.168Z,73.10
2019-02-22T00:02:36.769Z,73.10
2019-02-22T00:03:11.369Z,73.20
2019-02-22T00:03:45.940Z,73.00
2019-02-22T00:04:20.553Z,71.90
2019-02-22T00:04:55.066Z,73.00
2019-02-22T00:05:29.568Z,73.10
2019-02-22T00:06:04.082Z,73.10
2019-02-22T00:06:38.652Z,72.90
2019-02-22T00:07:13.169Z,72.40
2019-02-22T00:07:47.708Z,71.30
2019-02-22T00:08:22.261Z,71.30
2019-02-22T00:08:56.787Z,71.40
2019-02-22T00:09:31.450Z,71.20
2019-02-22T00:10:06.711Z,71.10
2019-02-22T00:10:41.226Z,72.20
2019-02-22T00:11:15.825Z,72.00
2019-02-22T00:11:50.387Z,72.00
2019-02-22T00:12:25.012Z,72.10
2019-02-22T00:12:59.515Z,72.00
2019-02-22T00:13:34.034Z,72.20
2019-02-22T00:14:08.619Z,73.10
2019-02-22T00:14:43.125Z,72.20
2019-02-22T00:15:17.654Z,71.90
2019-02-22T00:15:52.410Z,71.40
2019-02-22T00:16:32.628Z,71.20
2019-02-22T00:17:07.130Z,71.20
2019-02-22T00:17:41.639Z,71.20
2019-02-22T00:18:16.162Z,71.10
2019-02-22T00:18:50.727Z,71.10
2019-02-22T00:19:25.237Z,71.00
2019-02-22T00:19:59.765Z,70.90
2019-02-22T00:20:35.233Z,70.70
2019-02-22T00:21:09.800Z,70.50
2019-02-22T00:21:44.897Z,71.40
2019-02-22T00:22:19.466Z,70.60
2019-02-22T00:22:54.051Z,70.60
2019-02-22T00:23:28.615Z,70.50
2019-02-22T00:24:03.218Z,70.40
2019-02-22T00:24:37.793Z,70.40
2019-02-22T00:25:12.591Z,70.20
2019-02-22T00:25:47.093Z,70.10
2019-02-22T00:26:21.615Z,70.00
2019-02-22T00:26:56.162Z,70.20
2019-02-22T00:27:30.745Z,70.30
2019-02-22T00:28:05.264Z,70.40
2019-02-22T00:28:39.847Z,70.30
2019-02-22T00:29:14.353Z,70.30
2019-02-22T00:29:48.879Z,70.50
2019-02-22T00:30:23.399Z,70.60
2019-02-22T00:30:57.904Z,70.50
2019-02-22T00:31:32.423Z,70.60
2019-02-22T00:32:06.949Z,70.70
2019-02-22T00:32:42.655Z,70.80
2019-02-22T00:33:17.349Z,70.90
2019-02-22T00:33:51.937Z,71.10
2019-02-22T00:34:26.520Z,70.90
2019-02-22T00:35:01.116Z,71.00
2019-02-22T00:35:35.628Z,70.70
2019-02-22T00:36:10.304Z,70.80
2019-02-22T00:36:45.219Z,70.60
2019-02-22T00:37:19.893Z,70.60
2019-02-22T00:37:54.944Z,70.60
2019-02-22T00:38:29.457Z,70.60
2019-02-22T00:39:04.433Z,70.60
2019-02-22T00:39:38.957Z,70.70
2019-02-22T00:40:13.541Z,70.80
2019-02-22T00:40:49.536Z,71.10
2019-02-22T00:41:24.077Z,71.40
2019-02-22T00:41:58.617Z,71.50
2019-02-22T00:42:33.118Z,71.80
2019-02-22T00:43:07.601Z,72.00
2019-02-22T00:43:42.508Z,72.40
2019-02-22T00:44:17.016Z,72.40
2019-02-22T00:44:51.519Z,72.40
2019-02-22T00:45:26.031Z,72.50
2019-02-22T00:46:00.773Z,72.70
2019-02-22T00:46:35.274Z,72.80
2019-02-22T00:47:09.877Z,73.00
2019-02-22T00:47:44.428Z,73.20
2019-02-22T00:48:18.953Z,73.30
2019-02-22T00:48:53.537Z,73.30
2019-02-22T00:49:28.113Z,73.90
2019-02-22T00:50:02.613Z,73.50
2019-02-22T00:50:37.184Z,73.80
2019-02-22T00:51:11.697Z,74.00
2019-02-22T00:51:46.204Z,74.30
2019-02-22T00:52:20.702Z,74.60
2019-02-22T00:52:55.571Z,74.80
2019-02-22T00:53:30.104Z,75.30
2019-02-22T00:54:04.758Z,75.40
2019-02-22T00:54:39.264Z,75.80
2019-02-22T00:55:14.893Z,76.20
2019-02-22T00:55:49.456Z,76.60
2019-02-22T00:56:23.964Z,76.80
2019-02-22T00:56:59.461Z,76.80
2019-02-22T00:57:34.131Z,77.10
2019-02-22T00:58:08.644Z,77.40
2019-02-22T00:58:43.211Z,78.00
2019-02-22T00:59:18.060Z,77.80
2019-02-22T00:59:52.668Z,78.00
2019-02-22T01:00:28.260Z,78.20
2019-02-22T01:01:02.786Z,78.40
2019-02-22T01:01:37.333Z,78.60
2019-02-22T01:02:11.920Z,78.70
2019-02-22T01:02:47.018Z,78.80
2019-02-22T01:03:21.524Z,78.90
2019-02-22T01:03:56.051Z,78.90
2019-02-22T01:04:30.972Z,78.90
2019-02-22T01:05:06.206Z,79.00
2019-02-22T01:05:40.723Z,79.00
2019-02-22T01:06:15.301Z,79.00
2019-02-22T01:06:49.855Z,79.00
2019-02-22T01:07:24.356Z,79.00
2019-02-22T01:07:59.151Z,79.00
2019-02-22T01:08:33.669Z,79.30
2019-02-22T01:09:08.182Z,79.40
2019-02-22T01:09:42.741Z,79.30
2019-02-22T01:10:17.234Z,79.40
2019-02-22T01:10:51.785Z,79.60
2019-02-22T01:11:26.301Z,79.70
2019-02-22T01:12:00.812Z,79.60
2019-02-22T01:12:35.398Z,79.90
2019-02-22T01:13:10.036Z,79.80
2019-02-22T01:13:44.560Z,80.00
2019-02-22T01:14:19.073Z,80.10
2019-02-22T01:14:53.585Z,80.20
2019-02-22T01:15:28.165Z,80.20
2019-02-22T01:16:02.674Z,80.40
2019-02-22T01:16:37.179Z,80.40
2019-02-22T01:17:11.756Z,80.00
2019-02-22T01:17:46.364Z,80.40
2019-02-22T01:18:20.867Z,80.60
2019-02-22T01:18:55.386Z,80.70
2019-02-22T01:19:29.986Z,80.90
2019-02-22T01:20:05.627Z,81.10
2019-02-22T01:20:40.130Z,81.30
2019-02-22T01:21:14.809Z,81.70
2019-02-22T01:21:49.373Z,81.90
2019-02-22T01:22:23.954Z,82.10
2019-02-22T01:22:58.535Z,82.30
2019-02-22T01:23:33.112Z,82.40
2019-02-22T01:24:07.718Z,82.50
2019-02-22T01:24:42.270Z,82.60
2019-02-22T01:25:16.771Z,82.70
2019-02-22T01:25:51.286Z,82.60
2019-02-22T01:26:25.878Z,82.60
2019-02-22T01:27:00.450Z,82.60
2019-02-22T01:27:34.970Z,83.00
2019-02-22T01:28:09.537Z,81.80
2019-02-22T01:28:44.060Z,82.00
2019-02-22T01:29:18.598Z,82.10
2019-02-22T01:29:53.146Z,82.10
2019-02-22T01:30:27.711Z,82.40
2019-02-22T01:31:02.205Z,82.40
2019-02-22T01:31:36.730Z,82.30
2019-02-22T01:32:11.229Z,82.40
2019-02-22T01:32:46.304Z,82.70
2019-02-22T01:33:20.814Z,82.60
2019-02-22T01:33:55.409Z,82.80
2019-02-22T01:34:29.888Z,82.80
2019-02-22T01:35:04.609Z,83.10
2019-02-22T01:35:39.147Z,82.40
2019-02-22T01:36:13.710Z,82.40
2019-02-22T01:36:48.232Z,82.20
2019-02-22T01:37:22.758Z,82.10
2019-02-22T01:37:57.507Z,82.10
2019-02-22T01:38:32.090Z,82.10
2019-02-22T01:39:07.165Z,82.10
2019-02-22T01:39:41.690Z,82.00
2019-02-22T01:40:16.278Z,81.90
2019-02-22T01:40:50.801Z,81.80
2019-02-22T01:41:25.393Z,81.90
2019-02-22T01:41:59.955Z,82.30
2019-02-22T01:42:34.528Z,82.60
2019-02-22T01:43:09.043Z,82.50
2019-02-22T01:43:43.549Z,82.50
2019-02-22T01:44:22.380Z,82.30
2019-02-22T01:44:56.941Z,82.50
2019-02-22T01:45:31.464Z,82.50
2019-02-22T01:46:05.963Z,82.30
2019-02-22T01:46:40.473Z,82.40
2019-02-22T01:47:14.996Z,82.40
2019-02-22T01:47:49.490Z,82.40
2019-02-22T01:48:23.996Z,82.50
2019-02-22T01:48:58.738Z,82.60
2019-02-22T01:49:33.248Z,82.60
2019-02-22T01:50:08.098Z,82.60
2019-02-22T01:50:44.039Z,82.40
2019-02-22T01:51:18.542Z,82.50
2019-02-22T01:51:53.193Z,82.70
2019-02-22T01:52:27.690Z,82.60
2019-02-22T01:53:02.204Z,82.70
2019-02-22T01:53:38.313Z,82.70
2019-02-22T01:54:13.978Z,83.00
2019-02-22T01:54:48.532Z,82.80
2019-02-22T01:55:24.966Z,82.90
2019-02-22T01:55:59.522Z,82.90
2019-02-22T01:56:34.609Z,82.90
2019-02-22T01:57:09.146Z,82.90
2019-02-22T01:57:43.740Z,82.70
2019-02-22T01:58:18.314Z,82.90
2019-02-22T01:58:52.938Z,83.70
2019-02-22T01:59:27.519Z,83.00
2019-02-22T02:00:02.077Z,82.90
2019-02-22T02:00:37.210Z,82.90
2019-02-22T02:01:11.791Z,82.80
2019-02-22T02:01:46.384Z,82.80
2019-02-22T02:02:20.969Z,82.80
2019-02-22T02:02:55.508Z,83.40
2019-02-22T02:03:30.148Z,82.80
2019-02-22T02:04:04.835Z,82.80
2019-02-22T02:04:39.366Z,82.80
2019-02-22T02:05:13.968Z,82.90
2019-02-22T02:05:48.526Z,82.90
2019-02-22T02:06:23.036Z,82.90
2019-02-22T02:06:57.545Z,83.00
2019-02-22T02:07:32.110Z,83.00
2019-02-22T02:08:06.701Z,83.20
2019-02-22T02:08:41.210Z,83.40
2019-02-22T02:09:15.793Z,83.70
2019-02-22T02:09:50.360Z,83.90
2019-02-22T02:10:25.154Z,83.90
2019-02-22T02:10:59.793Z,84.00
2019-02-22T02:11:34.325Z,84.00
2019-02-22T02:12:08.883Z,83.90
2019-02-22T02:12:43.389Z,84.10
2019-02-22T02:13:18.050Z,84.20
2019-02-22T02:13:52.576Z,84.30
2019-02-22T02:14:27.172Z,84.10
2019-02-22T02:15:01.774Z,84.10
2019-02-22T02:15:36.477Z,84.20
2019-02-22T02:16:11.060Z,84.20
2019-02-22T02:16:45.790Z,84.40
2019-02-22T02:17:20.284Z,84.40
2019-02-22T02:17:54.883Z,84.50
2019-02-22T02:18:29.580Z,84.40
2019-02-22T02:19:04.086Z,84.50
2019-02-22T02:19:39.168Z,84.50
2019-02-22T02:20:14.141Z,84.70
2019-02-22T02:20:48.749Z,84.70
2019-02-22T02:21:23.302Z,84.70
2019-02-22T02:21:57.833Z,84.70
2019-02-22T02:22:32.332Z,84.70
2019-02-22T02:23:07.245Z,84.70
2019-02-22T02:23:41.811Z,84.80
2019-02-22T02:24:16.358Z,84.80
2019-02-22T02:24:50.985Z,84.70
2019-02-22T02:25:25.581Z,84.70
2019-02-22T02:26:00.207Z,84.70
2019-02-22T02:26:34.717Z,84.80
2019-02-22T02:27:09.284Z,85.00
2019-02-22T02:27:43.864Z,85.00
2019-02-22T02:28:18.364Z,85.00
2019-02-22T02:28:52.865Z,85.10
2019-02-22T02:29:27.384Z,85.10
2019-02-22T02:30:01.963Z,85.10
2019-02-22T02:30:36.534Z,85.20
2019-02-22T02:31:11.044Z,85.50
2019-02-22T02:31:45.633Z,85.40
2019-02-22T02:32:20.142Z,85.40
2019-02-22T02:32:54.648Z,85.40
2019-02-22T02:33:29.167Z,85.40
2019-02-22T02:34:03.756Z,85.60
2019-02-22T02:34:38.266Z,85.70
2019-02-22T02:35:12.765Z,85.70
2019-02-22T02:35:47.350Z,85.70
2019-02-22T02:36:21.892Z,85.60
2019-02-22T02:36:56.395Z,85.40
2019-02-22T02:37:30.987Z,85.40
2019-02-22T02:38:05.505Z,85.50
2019-02-22T02:38:40.025Z,85.50
2019-02-22T02:39:14.529Z,85.60
2019-02-22T02:39:49.057Z,85.70
2019-02-22T02:40:23.626Z,85.70
2019-02-22T02:41:07.090Z,85.90
2019-02-22T02:41:34.366Z,86.00
2019-02-22T02:42:08.978Z,86.10
2019-02-22T02:42:43.498Z,86.00
2019-02-22T02:43:18.364Z,86.10
2019-02-22T02:43:52.885Z,86.20
2019-02-22T02:44:27.451Z,86.30
2019-02-22T02:45:02.025Z,86.30
2019-02-22T02:45:36.621Z,86.60
2019-02-22T02:46:11.197Z,86.60
2019-02-22T02:46:45.716Z,86.70
2019-02-22T02:47:20.257Z,86.70
2019-02-22T02:47:55.025Z,86.70
2019-02-22T02:48:29.568Z,86.70
2019-02-22T02:49:04.129Z,86.80
2019-02-22T02:49:38.787Z,87.00
2019-02-22T02:50:15.805Z,87.00
2019-02-22T02:50:50.310Z,87.00
2019-02-22T02:51:24.803Z,87.10
2019-02-22T02:51:59.358Z,87.20
2019-02-22T02:52:35.618Z,87.10
2019-02-22T02:53:10.638Z,87.10
2019-02-22T02:53:45.440Z,87.10
2019-02-22T02:54:20.009Z,87.10
2019-02-22T02:54:54.615Z,87.20
2019-02-22T02:55:33.668Z,87.30
2019-02-22T02:56:29.045Z,87.40
2019-02-22T02:57:03.548Z,87.50
2019-02-22T02:57:38.065Z,87.20
2019-02-22T02:58:12.594Z,87.00
2019-02-22T02:58:47.153Z,87.90
2019-02-22T02:59:21.654Z,87.20
2019-02-22T02:59:56.157Z,87.20
2019-02-22T03:00:30.655Z,87.30
2019-02-22T03:01:05.264Z,87.30
2019-02-22T03:01:39.814Z,87.30
2019-02-22T03:02:15.953Z,87.10
2019-02-22T03:02:50.484Z,87.00
2019-02-22T03:03:25.091Z,87.00
2019-02-22T03:03:59.662Z,87.10
2019-02-22T03:04:34.623Z,87.30
2019-02-22T03:05:09.153Z,87.30
2019-02-22T03:06:00.702Z,87.20
2019-02-22T03:06:45.578Z,87.30
2019-02-22T03:07:22.030Z,87.20
2019-02-22T03:07:58.185Z,87.10
2019-02-22T03:08:34.219Z,87.00
2019-02-22T03:09:09.799Z,87.10
2019-02-22T03:09:44.400Z,87.20
2019-02-22T03:10:18.976Z,87.20
2019-02-22T03:10:53.536Z,87.20
2019-02-22T03:11:28.121Z,87.10
2019-02-22T03:12:03.718Z,87.20
2019-02-22T03:12:38.330Z,87.30
2019-02-22T03:13:13.242Z,87.70
2019-02-22T03:13:47.990Z,87.40
2019-02-22T03:14:22.583Z,87.40
2019-02-22T03:14:57.188Z,88.00
2019-02-22T03:15:31.795Z,87.40
2019-02-22T03:16:06.400Z,87.20
2019-02-22T03:16:42.784Z,87.20
2019-02-22T03:17:17.352Z,86.90
2019-02-22T03:17:51.924Z,87.20
2019-02-22T03:18:26.434Z,87.10
2019-02-22T03:19:01.033Z,87.10
2019-02-22T03:19:35.628Z,87.80
2019-02-22T03:20:11.314Z,87.30
2019-02-22T03:20:45.871Z,87.20
2019-02-22T03:21:20.824Z,87.20
2019-02-22T03:21:55.381Z,87.20
2019-02-22T03:22:29.894Z,87.20
2019-02-22T03:23:04.487Z,87.10
2019-02-22T03:23:39.098Z,87.10
2019-02-22T03:24:13.615Z,87.30
2019-02-22T03:24:48.173Z,87.40
2019-02-22T03:25:22.884Z,87.30
2019-02-22T03:25:57.395Z,87.50
2019-02-22T03:26:31.889Z,87.90
2019-02-22T03:27:06.485Z,88.10
2019-02-22T03:27:41.166Z,88.40
2019-02-22T03:28:15.677Z,88.90
2019-02-22T03:28:50.422Z,89.10
2019-02-22T03:29:24.922Z,89.30
2019-02-22T03:29:59.543Z,89.60
2019-02-22T03:30:34.133Z,89.90
2019-02-22T03:31:08.790Z,90.00
2019-02-22T03:31:43.363Z,90.10
2019-02-22T03:32:17.933Z,90.20
2019-02-22T03:32:52.447Z,90.40
2019-02-22T03:33:27.035Z,90.60
2019-02-22T03:34:01.674Z,90.60
2019-02-22T03:34:36.210Z,90.70
2019-02-22T03:35:10.819Z,90.90
2019-02-22T03:35:45.689Z,91.00
2019-02-22T03:36:20.267Z,91.40
2019-02-22T03:36:54.866Z,91.20
2019-02-22T03:37:29.437Z,91.30
2019-02-22T03:38:05.889Z,91.30
2019-02-22T03:38:40.181Z,91.70
2019-02-22T03:39:14.702Z,91.50
2019-02-22T03:39:49.287Z,91.70
2019-02-22T03:40:24.123Z,91.70
2019-02-22T03:40:58.713Z,91.80
2019-02-22T03:41:33.621Z,91.80
2019-02-22T03:42:08.322Z,91.90
2019-02-22T03:42:42.906Z,91.90
2019-02-22T03:43:17.419Z,91.90
2019-02-22T03:43:51.929Z,92.00
2019-02-22T03:44:26.605Z,92.00
2019-02-22T03:45:01.220Z,92.10
2019-02-22T03:45:35.885Z,92.20
2019-02-22T03:46:10.487Z,92.30
2019-02-22T03:46:45.051Z,92.30
2019-02-22T03:47:19.652Z,92.20
2019-02-22T03:47:54.207Z,92.30
2019-02-22T03:48:28.771Z,92.40
2019-02-22T03:49:03.580Z,92.40
2019-02-22T03:49:38.204Z,92.40
2019-02-22T03:50:14.647Z,92.50
2019-02-22T03:50:49.165Z,92.50
2019-02-22T03:51:23.743Z,92.50
2019-02-22T03:51:59.887Z,92.40
2019-02-22T03:52:36.112Z,92.50
2019-02-22T03:53:12.328Z,92.60
2019-02-22T03:53:48.089Z,92.70
2019-02-22T03:54:22.710Z,92.80
2019-02-22T03:54:57.992Z,93.00
2019-02-22T03:55:32.628Z,93.00
2019-02-22T03:56:07.184Z,93.40
2019-02-22T03:56:41.695Z,93.10
2019-02-22T03:57:16.262Z,93.10
2019-02-22T03:57:50.755Z,93.10
2019-02-22T03:58:25.697Z,93.20
2019-02-22T03:59:00.292Z,93.30
2019-02-22T03:59:34.852Z,93.30
2019-02-22T04:00:11.374Z,93.30
2019-02-22T04:00:48.509Z,93.30
2019-02-22T04:01:23.141Z,93.40
2019-02-22T04:01:57.661Z,93.30
2019-02-22T04:02:32.175Z,93.20
2019-02-22T04:03:06.880Z,93.30
2019-02-22T04:03:41.491Z,93.40
2019-02-22T04:04:16.056Z,93.50
2019-02-22T04:04:50.587Z,93.50
2019-02-22T04:05:25.596Z,93.60
2019-02-22T04:06:00.178Z,93.60
2019-02-22T04:06:35.230Z,93.60
2019-02-22T04:07:09.721Z,93.60
2019-02-22T04:07:44.227Z,93.50
2019-02-22T04:08:18.885Z,93.60
2019-02-22T04:08:53.403Z,93.60
2019-02-22T04:09:29.744Z,93.60
2019-02-22T04:10:05.842Z,93.80
2019-02-22T04:10:40.420Z,93.80
2019-02-22T04:11:15.001Z,93.80
2019-02-22T04:11:49.734Z,93.70
2019-02-22T04:12:24.389Z,93.70
2019-02-22T04:12:59.033Z,93.80
2019-02-22T04:13:33.576Z,93.70
2019-02-22T04:14:08.086Z,93.70
2019-02-22T04:15:03.240Z,93.60
2019-02-22T04:15:37.736Z,93.60
2019-02-22T04:16:12.310Z,93.80
2019-02-22T04:16:46.815Z,93.80
2019-02-22T04:17:21.382Z,93.80
2019-02-22T04:17:55.894Z,93.80
2019-02-22T04:18:30.397Z,93.80
2019-02-22T04:19:04.979Z,94.10
2019-02-22T04:19:42.022Z,93.80
2019-02-22T04:20:16.643Z,93.80
2019-02-22T04:20:51.195Z,93.80
2019-02-22T04:21:25.782Z,93.80
2019-02-22T04:22:00.590Z,93.80
2019-02-22T04:22:35.168Z,93.90
2019-02-22T04:23:09.683Z,93.80
2019-02-22T04:23:44.189Z,93.80
2019-02-22T04:24:18.774Z,93.70
2019-02-22T04:24:53.359Z,93.70
2019-02-22T04:25:27.848Z,93.70
2019-02-22T04:26:02.376Z,93.50
2019-02-22T04:26:36.949Z,93.40
2019-02-22T04:27:11.475Z,93.40
2019-02-22T04:27:46.035Z,93.50
2019-02-22T04:28:20.539Z,93.60
2019-02-22T04:28:55.179Z,93.60
2019-02-22T04:29:29.683Z,93.50
2019-02-22T04:30:06.308Z,93.50
2019-02-22T04:30:40.834Z,93.50
2019-02-22T04:31:15.409Z,93.50
2019-02-22T04:31:49.962Z,93.60
2019-02-22T04:32:24.467Z,93.60
2019-02-22T04:32:58.970Z,93.50
2019-02-22T04:33:33.527Z,93.60
2019-02-22T04:34:08.100Z,93.60
2019-02-22T04:34:42.611Z,93.50
2019-02-22T04:35:17.179Z,93.40
2019-02-22T04:35:51.853Z,93.40
2019-02-22T04:36:26.714Z,93.30
2019-02-22T04:37:01.354Z,93.20
2019-02-22T04:37:37.080Z,93.30
2019-02-22T04:38:11.663Z,93.40
2019-02-22T04:38:46.243Z,93.40
2019-02-22T04:39:20.757Z,93.40
2019-02-22T04:39:55.281Z,93.50
2019-02-22T04:40:29.857Z,93.40
2019-02-22T04:41:04.490Z,93.30
2019-02-22T04:41:39.156Z,93.20
2019-02-22T04:42:13.739Z,93.20
2019-02-22T04:42:48.250Z,93.00
2019-02-22T04:43:22.897Z,93.00
2019-02-22T04:43:57.400Z,93.10
2019-02-22T04:44:32.098Z,93.20
2019-02-22T04:45:09.646Z,93.20
2019-02-22T04:45:44.173Z,93.20
2019-02-22T04:46:18.703Z,93.10
2019-02-22T04:46:53.273Z,93.10
2019-02-22T04:47:27.938Z,93.10
2019-02-22T04:48:02.448Z,93.30
2019-02-22T04:48:39.419Z,93.40
2019-02-22T04:49:13.300Z,93.40
2019-02-22T04:49:49.661Z,93.70
2019-02-22T04:50:24.186Z,93.50
2019-02-22T04:50:58.783Z,93.60
2019-02-22T04:51:33.302Z,93.50
2019-02-22T04:52:07.805Z,93.50
2019-02-22T04:52:42.321Z,93.50
2019-02-22T04:53:16.905Z,93.50
2019-02-22T04:53:51.417Z,93.50
2019-02-22T04:54:26.993Z,93.60
2019-02-22T04:55:01.555Z,93.60
2019-02-22T04:55:36.089Z,93.50
2019-02-22T04:56:10.606Z,93.50
2019-02-22T04:56:45.105Z,93.60
2019-02-22T04:57:19.904Z,93.70
2019-02-22T04:57:54.633Z,93.60
2019-02-22T04:58:29.142Z,93.70
2019-02-22T04:59:03.701Z,93.60
2019-02-22T04:59:38.242Z,93.60
2019-02-22T05:00:12.817Z,93.70
2019-02-22T05:00:47.341Z,93.60
2019-02-22T05:01:21.862Z,93.50
2019-02-22T05:01:56.375Z,93.50
2019-02-22T05:02:31.068Z,93.50
2019-02-22T05:03:05.588Z,93.50
2019-02-22T05:03:40.158Z,93.50
2019-02-22T05:04:14.680Z,93.50
2019-02-22T05:04:49.197Z,93.50
2019-02-22T05:05:23.707Z,93.50
2019-02-22T05:05:58.300Z,93.50
2019-02-22T05:06:32.809Z,93.60
2019-02-22T05:07:07.436Z,93.60
2019-02-22T05:07:41.999Z,93.50
2019-02-22T05:08:16.498Z,93.70
2019-02-22T05:08:51.012Z,93.50
2019-02-22T05:09:25.543Z,93.50
2019-02-22T05:10:00.168Z,93.60
2019-02-22T05:10:35.011Z,93.60
2019-02-22T05:11:09.708Z,93.60
2019-02-22T05:11:44.355Z,93.60
2019-02-22T05:12:18.858Z,93.50
2019-02-22T05:12:53.459Z,93.60
2019-02-22T05:13:28.063Z,93.50
2019-02-22T05:14:05.918Z,93.50
2019-02-22T05:14:40.429Z,93.60
2019-02-22T05:15:15.006Z,93.90
2019-02-22T05:15:49.586Z,93.70
2019-02-22T05:16:24.145Z,93.70
2019-02-22T05:16:58.646Z,93.80
2019-02-22T05:17:35.651Z,93.80
2019-02-22T05:18:09.392Z,93.80
2019-02-22T05:18:43.952Z,93.70
2019-02-22T05:19:18.492Z,93.80
2019-02-22T05:19:52.981Z,93.90
2019-02-22T05:20:27.836Z,94.00
2019-02-22T05:21:02.343Z,94.10
2019-02-22T05:21:36.915Z,94.10
2019-02-22T05:22:11.407Z,94.10
2019-02-22T05:22:45.906Z,94.20
2019-02-22T05:23:20.484Z,94.20
2019-02-22T05:23:55.026Z,94.30
2019-02-22T05:24:29.538Z,94.30
2019-02-22T05:25:05.597Z,94.60
2019-02-22T05:25:40.100Z,94.40
2019-02-22T05:26:14.720Z,94.40
2019-02-22T05:26:49.345Z,94.30
2019-02-22T05:27:23.843Z,94.30
2019-02-22T05:27:58.353Z,94.30
2019-02-22T05:28:32.872Z,94.10
2019-02-22T05:29:07.383Z,94.10
2019-02-22T05:29:41.878Z,94.10
2019-02-22T05:30:16.577Z,94.10
2019-02-22T05:30:51.152Z,94.10
2019-02-22T05:31:25.673Z,94.10
2019-02-22T05:32:06.076Z,94.10
2019-02-22T05:32:40.589Z,94.10
2019-02-22T05:33:15.115Z,94.10
2019-02-22T05:33:49.684Z,94.00
2019-02-22T05:34:24.221Z,94.10
2019-02-22T05:34:58.766Z,94.00
2019-02-22T05:35:33.278Z,94.00
2019-02-22T05:36:07.792Z,94.00
2019-02-22T05:36:44.270Z,94.10
2019-02-22T05:37:18.664Z,94.00
2019-02-22T05:37:53.173Z,94.20
2019-02-22T05:38:34.202Z,94.10
2019-02-22T05:39:18.550Z,94.00
2019-02-22T05:39:44.944Z,94.10
2019-02-22T05:40:19.500Z,94.00
2019-02-22T05:40:54.019Z,94.00
2019-02-22T05:41:28.621Z,94.00
2019-02-22T05:42:03.192Z,94.10
2019-02-22T05:42:37.742Z,94.20
2019-02-22T05:43:12.367Z,94.20
2019-02-22T05:43:46.951Z,94.20
2019-02-22T05:44:21.497Z,94.10
2019-02-22T05:44:56.283Z,94.20
2019-02-22T05:45:33.289Z,94.00
2019-02-22T05:46:07.829Z,94.00
2019-02-22T05:46:42.361Z,94.10
2019-02-22T05:47:16.962Z,94.20
2019-02-22T05:47:51.528Z,94.10
2019-02-22T05:48:26.029Z,94.20
2019-02-22T05:49:00.530Z,94.30
2019-02-22T05:49:35.109Z,94.30
2019-02-22T05:50:09.804Z,94.10
2019-02-22T05:50:44.433Z,94.10
2019-02-22T05:51:18.960Z,94.20
2019-02-22T05:51:53.474Z,94.20
2019-02-22T05:52:28.041Z,94.20
2019-02-22T05:53:02.554Z,94.20
2019-02-22T05:53:37.059Z,94.30
2019-02-22T05:54:11.581Z,94.40
2019-02-22T05:54:46.160Z,94.40
2019-02-22T05:55:20.730Z,94.40
2019-02-22T05:55:55.319Z,94.40
2019-02-22T05:56:29.911Z,94.40
2019-02-22T05:57:04.494Z,94.20
2019-02-22T05:57:39.112Z,94.30
2019-02-22T05:58:13.645Z,94.30
2019-02-22T05:58:48.396Z,94.30
2019-02-22T05:59:23.437Z,94.30
2019-02-22T05:59:57.934Z,94.30
2019-02-22T06:00:33.226Z,94.30
2019-02-22T06:01:08.142Z,94.50
2019-02-22T06:01:43.166Z,94.10
2019-02-22T06:02:18.179Z,94.00
2019-02-22T06:02:53.205Z,94.00
2019-02-22T06:03:29.686Z,94.00
2019-02-22T06:04:05.535Z,94.00
2019-02-22T06:04:49.656Z,94.10
2019-02-22T06:05:25.563Z,94.10
2019-02-22T06:06:00.131Z,94.10
2019-02-22T06:06:34.723Z,94.10
2019-02-22T06:07:09.239Z,94.20
2019-02-22T06:07:43.910Z,94.10
2019-02-22T06:08:18.443Z,94.00
2019-02-22T06:08:53.033Z,94.00
2019-02-22T06:09:28.715Z,94.10
2019-02-22T06:10:03.629Z,94.10
2019-02-22T06:10:39.762Z,94.00
2019-02-22T06:11:14.679Z,94.00
2019-02-22T06:11:49.265Z,94.10
2019-02-22T06:12:34.129Z,94.10
2019-02-22T06:13:00.065Z,94.10
2019-02-22T06:13:34.570Z,94.20
2019-02-22T06:14:09.223Z,94.20
2019-02-22T06:14:43.739Z,94.30
2019-02-22T06:15:18.317Z,94.40
2019-02-22T06:15:52.824Z,94.40
2019-02-22T06:16:27.476Z,94.40
2019-02-22T06:17:13.895Z,94.40
2019-02-22T06:17:38.356Z,94.60
2019-02-22T06:18:12.936Z,94.60
2019-02-22T06:18:47.548Z,95.00
2019-02-22T06:19:22.072Z,94.80
2019-02-22T06:19:56.726Z,94.80
2019-02-22T06:20:31.306Z,94.80
2019-02-22T06:21:05.896Z,94.70
2019-02-22T06:21:40.429Z,94.70
2019-02-22T06:22:14.930Z,94.70
2019-02-22T06:22:49.517Z,94.60
2019-02-22T06:23:24.037Z,94.90
2019-02-22T06:23:58.545Z,94.70
2019-02-22T06:24:33.108Z,94.70
2019-02-22T06:25:08.196Z,94.70
2019-02-22T06:25:42.798Z,94.80
2019-02-22T06:26:17.311Z,94.80
2019-02-22T06:26:52.057Z,94.80
2019-02-22T06:27:27.644Z,94.80
2019-02-22T06:28:02.166Z,94.80
2019-02-22T06:28:36.745Z,94.80
2019-02-22T06:29:11.326Z,94.80
2019-02-22T06:29:45.827Z,94.80
2019-02-22T06:30:20.331Z,94.80
2019-02-22T06:30:56.031Z,94.90
2019-02-22T06:31:30.526Z,94.80
2019-02-22T06:32:05.057Z,94.90
2019-02-22T06:32:42.110Z,95.20
2019-02-22T06:33:15.779Z,94.90
2019-02-22T06:33:50.340Z,94.90
2019-02-22T06:34:24.850Z,95.10
2019-02-22T06:34:59.369Z,95.20
2019-02-22T06:35:33.954Z,95.30
2019-02-22T06:36:08.552Z,95.40
2019-02-22T06:36:44.685Z,95.40
2019-02-22T06:37:19.265Z,95.40
2019-02-22T06:37:54.609Z,95.40
2019-02-22T06:38:29.144Z,95.50
2019-02-22T06:39:04.781Z,95.40
2019-02-22T06:39:39.363Z,95.50
2019-02-22T06:40:13.954Z,95.50
2019-02-22T06:40:48.565Z,95.60
2019-02-22T06:41:23.398Z,95.50
2019-02-22T06:41:58.039Z,95.50
2019-02-22T06:42:33.553Z,95.40
2019-02-22T06:43:08.133Z,95.30
2019-02-22T06:43:42.858Z,95.40
2019-02-22T06:44:17.467Z,95.50
2019-02-22T06:44:52.229Z,95.40
2019-02-22T06:45:26.742Z,95.50
2019-02-22T06:46:01.260Z,95.50
2019-02-22T06:46:35.767Z,95.80
2019-02-22T06:47:10.371Z,95.50
2019-02-22T06:47:45.011Z,95.50
2019-02-22T06:48:19.832Z,95.60
2019-02-22T06:48:54.542Z,95.60
2019-02-22T06:49:29.122Z,95.60
2019-02-22T06:50:03.663Z,95.60
2019-02-22T06:50:38.245Z,95.60
2019-02-22T06:51:12.888Z,95.70
2019-02-22T06:51:47.542Z,95.70
2019-02-22T06:52:22.041Z,95.80
2019-02-22T06:52:56.573Z,95.80
2019-02-22T06:53:31.230Z,95.80
2019-02-22T06:54:05.815Z,95.70
2019-02-22T06:54:42.814Z,95.90
2019-02-22T06:55:19.051Z,95.60
2019-02-22T06:55:53.738Z,95.70
2019-02-22T06:56:28.282Z,95.80
2019-02-22T06:57:02.807Z,95.80
2019-02-22T06:57:37.445Z,95.70
2019-02-22T06:58:11.966Z,95.90
2019-02-22T06:58:46.502Z,96.00
2019-02-22T06:59:21.469Z,96.10
2019-02-22T06:59:56.177Z,96.10
2019-02-22T07:00:30.769Z,96.20
2019-02-22T07:01:05.285Z,96.30
2019-02-22T07:01:39.786Z,96.20
2019-02-22T07:02:14.303Z,96.20
2019-02-22T07:02:48.827Z,96.20
2019-02-22T07:03:23.678Z,96.30
2019-02-22T07:03:58.206Z,96.30
2019-02-22T07:04:33.101Z,96.30
2019-02-22T07:05:08.263Z,96.30
2019-02-22T07:05:42.759Z,96.20
2019-02-22T07:06:17.299Z,96.00
2019-02-22T07:06:51.812Z,96.10
2019-02-22T07:07:26.411Z,96.10
2019-02-22T07:08:01.129Z,96.20
2019-02-22T07:08:37.720Z,96.10
2019-02-22T07:09:12.241Z,96.20
2019-02-22T07:09:50.467Z,96.20
2019-02-22T07:10:25.188Z,96.20
2019-02-22T07:11:16.489Z,96.20
2019-02-22T07:11:55.748Z,96.10
2019-02-22T07:12:34.933Z,96.00
2019-02-22T07:13:12.703Z,96.10
2019-02-22T07:13:47.953Z,96.10
2019-02-22T07:14:22.853Z,96.20
2019-02-22T07:14:57.373Z,96.10
2019-02-22T07:15:31.983Z,96.20
2019-02-22T07:16:06.560Z,96.20
2019-02-22T07:16:48.373Z,96.20
2019-02-22T07:17:22.889Z,96.10
2019-02-22T07:17:57.389Z,96.10
2019-02-22T07:18:32.260Z,96.10
2019-02-22T07:19:06.771Z,96.20
2019-02-22T07:19:41.441Z,96.10
2019-02-22T07:20:16.022Z,96.10
2019-02-22T07:20:50.627Z,96.10
2019-02-22T07:21:25.144Z,96.20
2019-02-22T07:21:59.733Z,96.20
2019-02-22T07:22:34.323Z,96.20
2019-02-22T07:23:09.838Z,96.20
2019-02-22T07:23:44.425Z,96.20
2019-02-22T07:24:19.003Z,96.50
2019-02-22T07:24:53.540Z,96.30
2019-02-22T07:25:28.369Z,96.30
2019-02-22T07:26:03.013Z,96.30
2019-02-22T07:26:37.702Z,96.30
2019-02-22T07:27:12.320Z,96.30
2019-02-22T07:27:47.006Z,96.20
2019-02-22T07:28:23.557Z,96.20
2019-02-22T07:28:57.912Z,96.30
2019-02-22T07:29:32.608Z,96.30
2019-02-22T07:30:10.240Z,96.40